ROMMA est une association bénévole à but non lucratif. Votre soutien est indispensable : ADHERER à ROMMA ou FAIRE un DON

Granges-lès-Beaumont - (26, Drôme)

Drôme des Collines (155 m)   Longitude: 04°58'E   Latitude: 45°03'N Station partenaire n°123
 

Détail journalier du     <<     >>

Température Precipitation Humidité Pression Vent Dir Rafale Dir. rafale Ensol.
Heure (°C) (mm) (%) (hPa) (km/h) (km/h) (min)
01:00 7.909710115ENE15ENE0
02:00 8.109610116ENE13ENE0
03:00 8.309510116ENE15E0
04:00 8.809410112E10E0
05:00 8.309410113NNE15E0
06:00 7.8095101110ENE19ENE0
07:00 7.409510119ENE16ENE0
08:00 8.1095101210ENE18E0
09:00 7.709610128E15E10
10:00 9.709410126ENE13E50
11:00 11.209110127ENE15ENE60
12:00 14.108210127SSE15ENE60
13:00 15.207810119S26S60
14:00 16.0074101112S35S60
15:00 15.6075101114SSO31S60
16:00 14.8078101112S32S50
17:00 13.908210119S27S20
18:00 12.908510116SSE15SSE0
19:00 12.408710118SSO18S0
20:00 12.108810117SSO19S0
21:00 11.808810115SSO18S0
22:00 11.808510126S18S0
23:00 12.408310129SSO29S0
minuit 12.808110128SSO21SO0

Graphique du 15-12-2019

 

Serveur OMMA